Time;durP1;ratioP1;P1;durP2;ratioP2;P2;SDS_P1;SDS_P2;PMS_P1;PMS_P2;Temp;Humidity;BMP_temperature;BMP_pressure;BME280_temperature;BME280_humidity;BME280_pressure;Samples;Min_cycle;Max_cycle;Signal;HPM_P1;HPM_P2
2023/10/17 00:01:18;;;;;;;0.90;0.90;;;;;;;2.32;98.30;97740.66;4768840;30;20071;-80
2023/10/17 00:03:46;;;;;;;1.00;1.00;;;;;;;2.36;98.69;97749.81;4769087;30;20109;-79
2023/10/17 00:06:17;;;;;;;0.80;0.80;;;;;;;2.34;98.51;97766.00;4767600;30;20146;-79
2023/10/17 00:08:50;;;;;;;0.90;0.90;;;;;;;2.34;98.72;97754.56;4769310;30;20115;-80
2023/10/17 00:11:19;;;;;;;0.90;0.90;;;;;;;2.30;98.54;97762.16;4768805;30;20132;-79
2023/10/17 00:14:01;;;;;;;0.90;0.90;;;;;;;2.28;98.72;97760.75;4768733;30;20516;-79
2023/10/17 00:16:30;;;;;;;1.00;1.00;;;;;;;2.26;98.58;97757.53;4768957;30;20060;-80
2023/10/17 00:19:04;;;;;;;0.90;0.90;;;;;;;2.24;98.74;97760.38;4768712;30;20134;-80
2023/10/17 00:21:33;;;;;;;1.00;1.00;;;;;;;2.19;98.60;97764.75;4768793;30;20056;-79
2023/10/17 00:24:03;;;;;;;0.90;0.90;;;;;;;2.17;98.55;97764.97;4768459;30;20563;-78
2023/10/17 00:26:31;;;;;;;0.82;0.82;;;;;;;2.13;98.39;97764.59;4768793;30;20504;-80
2023/10/17 00:28:58;;;;;;;0.80;0.80;;;;;;;2.08;97.92;97760.97;4767535;30;20062;-80
2023/10/17 00:31:25;;;;;;;0.90;0.90;;;;;;;2.08;97.99;97760.97;4768670;30;20427;-79
2023/10/17 00:34:00;;;;;;;0.90;0.90;;;;;;;1.95;98.04;97759.28;4768729;30;20055;-80
2023/10/17 00:36:28;;;;;;;1.00;1.00;;;;;;;1.91;98.17;97763.38;4767285;30;20095;-78
2023/10/17 00:39:08;;;;;;;1.00;1.00;;;;;;;1.85;98.48;97754.44;4768412;30;20083;-80
2023/10/17 00:41:50;;;;;;;0.90;0.90;;;;;;;1.78;98.81;97759.00;4767669;30;20055;-80
2023/10/17 00:44:27;;;;;;;0.90;0.90;;;;;;;1.74;99.05;97755.94;4752618;30;20138;-79
2023/10/17 00:46:54;;;;;;;1.00;1.00;;;;;;;1.73;99.12;97751.69;4768530;30;20074;-80
2023/10/17 00:49:29;;;;;;;1.00;1.00;;;;;;;1.69;98.81;97761.09;4767215;30;20085;-79
2023/10/17 00:51:59;;;;;;;0.82;0.82;;;;;;;1.65;99.09;97754.63;4752089;30;20428;-81
2023/10/17 00:54:27;;;;;;;1.00;1.00;;;;;;;1.65;99.09;97762.59;4767251;30;20047;-79
2023/10/17 00:56:55;;;;;;;1.00;1.00;;;;;;;1.60;98.43;97756.31;4767214;30;20082;-80
2023/10/17 00:59:29;;;;;;;0.93;0.93;;;;;;;1.56;98.77;97753.25;4768311;30;20066;-78
2023/10/17 01:01:56;;;;;;;1.00;1.00;;;;;;;1.57;98.89;97765.53;4768081;30;20052;-79
2023/10/17 01:04:24;;;;;;;0.90;0.90;;;;;;;1.49;98.87;97760.47;4767243;30;20105;-80
2023/10/17 01:06:55;;;;;;;1.00;1.00;;;;;;;1.46;99.17;97758.25;4766923;30;20047;-80
2023/10/17 01:09:24;;;;;;;0.80;0.80;;;;;;;1.46;99.44;97768.88;4768095;30;20055;-80
2023/10/17 01:11:54;;;;;;;0.90;0.90;;;;;;;1.44;99.53;97754.97;4768188;30;20059;-80
2023/10/17 01:14:23;;;;;;;1.00;1.00;;;;;;;1.38;99.81;97774.47;4768167;30;20063;-80
2023/10/17 01:16:53;;;;;;;0.90;0.90;;;;;;;1.43;99.93;97764.81;4767083;30;20079;-79
2023/10/17 01:19:23;;;;;;;1.00;1.00;;;;;;;1.45;99.18;97765.41;4751982;30;20501;-80
2023/10/17 01:21:52;;;;;;;1.00;1.00;;;;;;;1.44;99.44;97782.41;4768073;30;20071;-79
2023/10/17 01:24:20;;;;;;;0.90;0.90;;;;;;;1.44;99.37;97781.56;4767762;30;20058;-79
2023/10/17 01:26:47;;;;;;;1.00;1.00;;;;;;;1.43;99.13;97771.97;4768008;30;20405;-79
2023/10/17 01:29:14;;;;;;;0.90;0.90;;;;;;;1.38;99.29;97772.63;4771414;30;20512;-78
2023/10/17 01:31:44;;;;;;;0.98;0.98;;;;;;;1.39;99.05;97784.06;4771726;30;20063;-80
2023/10/17 01:34:12;;;;;;;0.90;0.90;;;;;;;1.32;99.40;97780.63;4771593;30;20500;-79
2023/10/17 01:36:40;;;;;;;1.00;1.00;;;;;;;1.28;99.52;97777.59;4771480;30;20079;-80
2023/10/17 01:39:10;;;;;;;0.95;0.95;;;;;;;1.28;99.51;97783.72;4770035;30;20055;-80
2023/10/17 01:41:47;;;;;;;0.98;0.98;;;;;;;1.28;99.88;97777.59;4770548;30;20060;-79
2023/10/17 01:44:14;;;;;;;0.82;0.82;;;;;;;1.28;99.91;97782.91;4771376;30;20086;-80
2023/10/17 01:46:43;;;;;;;1.00;1.00;;;;;;;1.27;99.80;97787.41;4771680;30;20151;-79
2023/10/17 01:49:12;;;;;;;0.90;0.90;;;;;;;1.28;99.73;97783.72;4784797;30;20080;-78
2023/10/17 01:51:44;;;;;;;0.88;0.88;;;;;;;1.26;99.68;97783.09;4768610;30;20052;-79
2023/10/17 01:54:16;;;;;;;1.00;1.00;;;;;;;1.25;99.59;97778.84;4754098;30;20084;-79
2023/10/17 01:56:49;;;;;;;0.88;0.88;;;;;;;1.19;99.62;97786.84;4769001;30;20056;-80
2023/10/17 01:59:35;;;;;;;0.95;0.95;;;;;;;1.15;99.62;97786.47;4753844;30;20066;-80
2023/10/17 02:02:03;;;;;;;0.88;0.88;;;;;;;1.12;100.00;97786.09;4753818;30;20051;-80
2023/10/17 02:04:34;;;;;;;1.00;1.00;;;;;;;1.09;100.00;97782.03;4768855;30;20055;-79
2023/10/17 02:07:03;;;;;;;1.00;1.00;;;;;;;1.06;99.89;97782.41;4768522;30;20052;-79
2023/10/17 02:12:00;;;;;;;1.00;1.00;;;;;;;0.92;100.00;97779.03;4768628;30;20143;-80
2023/10/17 02:14:28;;;;;;;1.00;1.00;;;;;;;0.92;100.00;97781.69;4768572;30;20060;-79
2023/10/17 02:16:56;;;;;;;0.90;0.90;;;;;;;0.94;100.00;97781.47;4768718;30;20075;-80
2023/10/17 02:19:25;;;;;;;0.93;0.93;;;;;;;0.92;100.00;97771.06;4768586;30;20115;-80
2023/10/17 02:22:16;;;;;;;0.98;0.98;;;;;;;0.82;100.00;97776.84;4768284;30;20204;-80
2023/10/17 02:24:44;;;;;;;0.90;0.90;;;;;;;0.74;100.00;97782.41;4753941;30;20062;-80
2023/10/17 02:27:13;;;;;;;1.02;1.02;;;;;;;0.73;100.00;97780.75;4767990;30;20427;-80
2023/10/17 02:29:41;;;;;;;1.10;1.10;;;;;;;0.67;100.00;97788.75;4769879;30;20572;-79
2023/10/17 02:32:12;;;;;;;0.90;0.90;;;;;;;0.62;100.00;97779.56;4770327;30;20060;-79
2023/10/17 02:34:43;;;;;;;1.00;1.00;;;;;;;0.61;100.00;97790.41;4770462;30;20125;-79
2023/10/17 02:37:11;;;;;;;0.93;0.93;;;;;;;0.61;100.00;97777.97;4770279;30;20083;-79
2023/10/17 02:39:39;;;;;;;1.00;1.00;;;;;;;0.59;100.00;97781.84;4769270;30;20212;-80
2023/10/17 02:42:09;;;;;;;0.80;0.80;;;;;;;0.52;100.00;97789.81;4770266;30;20105;-80
2023/10/17 02:44:40;;;;;;;1.00;1.00;;;;;;;0.49;100.00;97789.44;4770364;30;20436;-79
2023/10/17 02:47:11;;;;;;;0.90;0.90;;;;;;;0.43;100.00;97791.91;4770159;30;20064;-80
2023/10/17 02:49:42;;;;;;;0.90;0.90;;;;;;;0.41;100.00;97793.16;4770157;30;20146;-79
2023/10/17 02:52:10;;;;;;;1.00;1.00;;;;;;;0.35;100.00;97789.47;4768841;30;20504;-79
2023/10/17 02:57:41;;;;;;;0.90;0.90;;;;;;;0.28;100.00;97793.16;4718061;30;20076;-80
2023/10/17 03:00:34;;;;;;;0.90;0.90;;;;;;;0.24;100.00;97798.06;4732215;30;20247;-80
2023/10/17 03:03:12;;;;;;;0.82;0.82;;;;;;;0.13;100.00;97796.06;4717605;30;20057;-79
2023/10/17 03:05:44;;;;;;;0.80;0.80;;;;;;;0.08;100.00;97799.34;4732258;30;20057;-80
2023/10/17 03:08:15;;;;;;;1.00;1.00;;;;;;;0.01;100.00;97795.06;4732130;30;20151;-80
2023/10/17 03:10:43;;;;;;;1.10;1.10;;;;;;;-0.07;100.00;97796.09;4732136;30;20087;-80
2023/10/17 03:16:01;;;;;;;0.88;0.88;;;;;;;0.03;100.00;97788.53;4732392;30;20184;-79
2023/10/17 03:18:29;;;;;;;0.88;0.88;;;;;;;-0.05;100.00;97794.03;4732263;30;20064;-80
2023/10/17 03:20:56;;;;;;;1.00;1.00;;;;;;;-0.06;100.00;97787.09;4732144;30;20592;-80
2023/10/17 03:23:29;;;;;;;1.10;1.10;;;;;;;-0.06;100.00;97793.22;4717615;30;20505;-80
2023/10/17 03:26:02;;;;;;;0.90;0.90;;;;;;;-0.01;100.00;97797.91;4717636;30;20378;-80
2023/10/17 03:28:34;;;;;;;;;;;;;;;-0.05;100.00;97783.41;4732429;30;20277;-81
2023/10/17 03:31:10;;;;;;;1.00;1.00;;;;;;;-0.14;100.00;97779.38;4739375;30;19969;-80
2023/10/17 03:33:40;;;;;;;0.90;0.90;;;;;;;-0.23;100.00;97781.41;4769400;30;20098;-80
2023/10/17 03:36:40;;;;;;;0.90;0.90;;;;;;;-0.23;100.00;97790.19;4767797;30;20055;-80
2023/10/17 03:39:14;;;;;;;1.00;1.00;;;;;;;-0.26;100.00;97787.13;4769334;30;20064;-80
2023/10/17 03:41:41;;;;;;;1.07;1.07;;;;;;;-0.35;100.00;97791.03;4768052;30;20063;-80
2023/10/17 03:44:08;;;;;;;0.95;0.95;;;;;;;-0.29;100.00;97795.50;4768938;30;20114;-80
2023/10/17 03:46:39;;;;;;;0.80;0.80;;;;;;;-0.27;100.00;97802.22;4769303;30;20055;-81
2023/10/17 03:49:06;;;;;;;1.10;1.10;;;;;;;-0.26;100.00;97803.84;4768874;30;20063;-80
2023/10/17 03:51:34;;;;;;;0.93;0.93;;;;;;;-0.30;100.00;97799.97;4768610;30;20070;-80
2023/10/17 03:54:06;;;;;;;1.00;1.00;;;;;;;-0.38;100.00;97804.66;4769011;30;20052;-81
2023/10/17 03:56:45;;;;;;;1.10;1.10;;;;;;;-0.38;100.00;97799.34;4768875;30;20404;-81
2023/10/17 04:01:41;;;;;;;0.80;0.80;;;;;;;-0.44;100.00;97811.59;4768905;30;20150;-80
2023/10/17 04:04:08;;;;;;;0.98;0.98;;;;;;;-0.50;100.00;97813.22;4768663;30;20056;-79
2023/10/17 04:06:55;;;;;;;0.90;0.90;;;;;;;-0.48;100.00;97816.50;4768818;30;20063;-81
2023/10/17 04:09:27;;;;;;;1.00;1.00;;;;;;;-0.49;100.00;97819.34;4768504;30;20122;-80
2023/10/17 04:12:03;;;;;;;1.00;1.00;;;;;;;-0.49;100.00;97822.81;4768674;30;20591;-82
2023/10/17 04:14:33;;;;;;;1.00;1.00;;;;;;;-0.47;100.00;97818.13;4768786;30;20151;-80
2023/10/17 04:17:05;;;;;;;1.00;1.00;;;;;;;-0.43;100.00;97829.16;4768756;30;20448;-80
2023/10/17 04:19:32;;;;;;;0.90;0.90;;;;;;;-0.39;100.00;97834.84;4754361;30;20147;-80
2023/10/17 04:24:48;;;;;;;0.90;0.90;;;;;;;-0.28;100.00;97832.41;4749942;30;20173;-79
2023/10/17 04:29:50;;;;;;;1.00;1.00;;;;;;;-0.23;100.00;97832.63;4750172;30;20052;-80
2023/10/17 04:32:19;;;;;;;0.90;0.90;;;;;;;-0.18;100.00;97847.09;4749322;30;20063;-81
2023/10/17 04:34:48;;;;;;;0.98;0.98;;;;;;;-0.19;100.00;97850.78;4744096;30;20063;-79
2023/10/17 04:37:17;;;;;;;1.02;1.02;;;;;;;-0.15;100.00;97852.81;4732672;30;20060;-82
2023/10/17 04:39:50;;;;;;;1.10;1.10;;;;;;;-0.07;100.00;97854.44;4410525;30;9999743;-81
2023/10/17 04:45:13;;;;;;;1.00;1.00;;;;;;;0.07;100.00;97861.38;4740939;30;20052;-81
2023/10/17 04:47:45;;;;;;;1.00;1.00;;;;;;;0.09;100.00;97869.13;4729095;30;20061;-81
2023/10/17 04:50:13;;;;;;;0.90;0.90;;;;;;;0.13;100.00;97871.16;4728844;30;20068;-80
2023/10/17 04:52:41;;;;;;;1.00;1.00;;;;;;;0.15;100.00;97863.00;4728819;30;20060;-80
2023/10/17 04:55:18;;;;;;;1.00;1.00;;;;;;;0.17;100.00;97882.19;4734989;30;20121;-80
2023/10/17 04:57:58;;;;;;;0.98;0.98;;;;;;;0.15;100.00;97886.88;4739088;30;20056;-81
2023/10/17 05:01:18;;;;;;;1.08;1.08;;;;;;;0.17;100.00;97877.69;4754018;30;20052;-81
2023/10/17 05:09:00;;;;;;;1.00;1.00;;;;;;;0.24;100.00;97898.91;4754111;30;20052;-83
2023/10/17 06:18:07;;;;;;;0.90;0.90;;;;;;;0.64;99.78;97936.03;4740908;30;20068;-83
2023/10/17 06:23:23;;;;;;;0.95;0.95;;;;;;;0.69;100.00;97940.75;4745326;30;20068;-83
2023/10/17 06:33:37;;;;;;;1.00;1.00;;;;;;;0.80;99.61;97938.25;4745810;30;20409;-82
2023/10/17 06:36:50;;;;;;;0.90;0.90;;;;;;;0.81;99.44;97939.91;4746960;30;20539;-81
2023/10/17 06:38:55;;;;;;;1.10;1.10;;;;;;;0.81;99.45;97937.25;4740230;30;20060;-82
2023/10/17 06:41:30;;;;;;;1.05;1.05;;;;;;;0.84;99.39;97931.50;4746469;30;20060;-82
2023/10/17 06:43:58;;;;;;;0.98;0.98;;;;;;;0.83;99.11;97950.28;4743666;30;20057;-81
2023/10/17 06:46:46;;;;;;;1.00;1.00;;;;;;;0.90;99.19;97943.13;4741920;30;20049;-81
2023/10/17 06:53:02;;;;;;;0.98;0.98;;;;;;;0.99;98.61;97936.56;4736895;30;20084;-80
2023/10/17 06:54:59;;;;;;;1.05;1.05;;;;;;;1.02;98.36;97938.00;4757103;30;20062;-79
2023/10/17 06:57:33;;;;;;;1.10;1.10;;;;;;;1.09;98.25;97944.13;4734985;30;20473;-82
2023/10/17 07:00:27;;;;;;;1.05;1.05;;;;;;;1.22;97.96;97938.75;4744883;30;20052;-81
2023/10/17 07:02:56;;;;;;;0.90;0.90;;;;;;;1.26;97.44;97950.56;4749767;30;20067;-81
2023/10/17 07:05:26;;;;;;;1.08;1.08;;;;;;;1.24;96.78;97914.59;4749367;30;20064;-82
2023/10/17 07:07:53;;;;;;;0.90;0.90;;;;;;;1.25;96.29;97948.13;4746875;30;20147;-80
2023/10/17 07:10:37;;;;;;;0.90;0.90;;;;;;;1.24;96.09;97949.16;4748702;30;20059;-81
2023/10/17 07:13:42;;;;;;;0.90;0.90;;;;;;;1.27;95.89;97951.41;4748569;30;20052;-80
2023/10/17 07:16:12;;;;;;;1.00;1.00;;;;;;;1.36;96.03;97957.28;4758909;30;20114;-81
2023/10/17 07:21:17;;;;;;;1.08;1.08;;;;;;;1.38;95.55;97955.25;4741957;30;20575;-81
2023/10/17 07:23:48;;;;;;;1.00;1.00;;;;;;;1.33;95.17;97939.91;4749670;30;20083;-81
2023/10/17 07:26:24;;;;;;;1.00;1.00;;;;;;;1.41;95.04;97965.44;4749696;30;20056;-81
2023/10/17 07:28:52;;;;;;;1.00;1.00;;;;;;;1.37;95.11;97956.25;4745667;30;20060;-79
2023/10/17 07:31:22;;;;;;;1.10;1.10;;;;;;;1.38;95.32;97956.06;4750339;30;20155;-81
2023/10/17 07:36:36;;;;;;;1.00;1.00;;;;;;;1.40;95.51;97971.81;4750311;30;20062;-82
2023/10/17 07:39:06;;;;;;;1.00;1.00;;;;;;;1.41;95.62;97970.78;4750001;30;20059;-80
2023/10/17 07:41:37;;;;;;;1.00;1.00;;;;;;;1.43;95.48;97974.03;4750851;30;20056;-80
2023/10/17 07:44:19;;;;;;;0.95;0.95;;;;;;;1.42;95.10;97983.88;4751095;30;20066;-80
2023/10/17 07:46:50;;;;;;;1.00;1.00;;;;;;;1.38;95.06;97984.50;4747286;30;20061;-81
2023/10/17 07:49:26;;;;;;;1.00;1.00;;;;;;;1.36;95.19;97986.53;4742766;30;20067;-81
2023/10/17 07:51:54;;;;;;;1.00;1.00;;;;;;;1.39;95.03;97981.59;4742877;30;20070;-80
2023/10/17 07:54:28;;;;;;;1.05;1.05;;;;;;;1.56;95.22;97975.81;4745021;30;20122;-80
2023/10/17 07:56:58;;;;;;;1.00;1.00;;;;;;;1.60;95.17;97985.84;4747524;30;20086;-79
2023/10/17 07:59:33;;;;;;;1.00;1.00;;;;;;;1.56;94.30;97997.91;4748472;30;20060;-80
2023/10/17 08:02:13;;;;;;;1.00;1.00;;;;;;;1.61;93.87;97998.09;4749331;30;20672;-80
2023/10/17 08:04:43;;;;;;;1.10;1.10;;;;;;;1.60;93.24;97988.50;4747156;30;20087;-80
2023/10/17 08:07:13;;;;;;;1.00;1.00;;;;;;;1.67;93.13;98007.06;4745178;30;20060;-79
2023/10/17 08:09:50;;;;;;;1.00;1.00;;;;;;;1.78;92.45;97997.63;4748349;30;20074;-80
2023/10/17 08:12:22;;;;;;;1.10;1.10;;;;;;;1.71;90.33;97994.97;4749758;30;20060;-81
2023/10/17 08:14:59;;;;;;;1.00;1.00;;;;;;;1.62;89.73;98007.72;4747735;30;20054;-81
2023/10/17 08:17:27;;;;;;;1.00;1.00;;;;;;;1.62;88.73;98013.03;4746695;30;20067;-80
2023/10/17 08:23:06;;;;;;;1.10;1.10;;;;;;;1.65;87.38;98027.75;4763342;30;20063;-80
2023/10/17 08:25:52;;;;;;;;;;;;;;;1.62;86.59;98007.72;4756964;30;20064;-82
2023/10/17 08:42:11;;;;;;;1.10;1.10;;;;;;;1.86;86.55;98022.13;4748075;30;20419;-82
2023/10/17 08:44:42;;;;;;;0.90;0.90;;;;;;;1.92;86.87;98023.09;4746989;30;20063;-81
2023/10/17 08:47:16;;;;;;;1.10;1.10;;;;;;;1.95;86.98;98020.84;4744866;30;20525;-82
2023/10/17 08:49:44;;;;;;;1.00;1.00;;;;;;;1.90;87.11;98022.50;4745672;30;20431;-83
2023/10/17 08:52:24;;;;;;;1.00;1.00;;;;;;;1.93;87.38;98017.59;4749193;30;20060;-82
2023/10/17 08:54:52;;;;;;;1.10;1.10;;;;;;;2.00;87.28;98014.91;4739424;30;20428;-82
2023/10/17 08:57:20;;;;;;;1.00;1.00;;;;;;;2.10;86.74;98014.41;4743181;30;20052;-82
2023/10/17 09:04:52;;;;;;;1.00;1.00;;;;;;;2.24;85.88;98023.94;4743403;30;20085;-82
2023/10/17 09:07:41;;;;;;;1.00;1.00;;;;;;;2.32;84.86;98012.22;4745942;30;20056;-83
2023/10/17 09:10:28;;;;;;;1.00;1.00;;;;;;;2.65;84.13;98016.50;4746028;30;20052;-82
2023/10/17 09:13:43;;;;;;;1.30;1.20;;;;;;;3.17;82.40;98019.72;4742038;30;20080;-82
2023/10/17 09:16:17;;;;;;;1.10;1.10;;;;;;;3.65;80.39;98005.63;4743450;30;20057;-82
2023/10/17 09:18:54;;;;;;;1.15;1.15;;;;;;;3.64;78.69;98014.66;4738778;30;20746;-82
2023/10/17 09:21:21;;;;;;;1.00;1.00;;;;;;;3.37;78.74;98028.31;4743330;30;20246;-83
2023/10/17 09:23:50;;;;;;;1.00;1.00;;;;;;;3.19;78.89;98015.78;4741181;30;20052;-81
2023/10/17 09:26:22;;;;;;;1.00;1.00;;;;;;;3.00;78.51;98025.59;4741836;30;20070;-81
2023/10/17 09:29:00;;;;;;;1.00;1.00;;;;;;;2.89;79.33;98012.19;4743043;30;20152;-80
2023/10/17 09:31:27;;;;;;;0.90;0.90;;;;;;;2.86;79.43;98013.44;4727328;30;20702;-81
2023/10/17 09:34:04;;;;;;;1.02;1.02;;;;;;;2.94;79.05;98031.81;4710475;30;20531;-81
2023/10/17 09:36:36;;;;;;;1.00;1.00;;;;;;;2.98;78.88;98018.84;4728322;30;20057;-80
2023/10/17 09:39:14;;;;;;;1.00;1.00;;;;;;;2.94;79.28;98036.34;4697127;30;20192;-82
2023/10/17 09:42:02;;;;;;;0.98;0.98;;;;;;;2.87;79.97;98027.59;4725000;30;20057;-82
2023/10/17 09:44:29;;;;;;;0.90;0.90;;;;;;;2.82;80.83;98034.38;4725764;30;20053;-82
2023/10/17 09:47:06;;;;;;;1.00;1.00;;;;;;;2.87;81.18;98036.38;4725014;30;20156;-81
2023/10/17 09:49:43;;;;;;;1.00;1.00;;;;;;;2.90;81.46;98033.28;4727119;30;20186;-83
2023/10/17 09:52:14;;;;;;;1.00;1.00;;;;;;;3.03;81.38;98049.16;4714460;30;20128;-80
2023/10/17 09:54:41;;;;;;;1.00;1.00;;;;;;;3.00;82.30;98028.25;4724961;30;20056;-82
2023/10/17 09:57:14;;;;;;;1.10;1.10;;;;;;;3.32;82.38;98033.50;4710761;30;20529;-82
2023/10/17 09:59:51;;;;;;;1.00;1.00;;;;;;;3.66;81.92;98020.59;4738750;30;20101;-80
2023/10/17 10:02:20;;;;;;;1.00;1.00;;;;;;;3.16;82.99;98026.06;4760698;30;20143;-83
2023/10/17 10:04:50;;;;;;;1.00;1.00;;;;;;;3.34;83.49;98023.44;4749576;30;20137;-81
2023/10/17 10:07:23;;;;;;;0.90;0.90;;;;;;;3.46;81.32;98024.28;4750626;30;20047;-83
2023/10/17 10:09:50;;;;;;;0.90;0.90;;;;;;;3.28;82.24;98018.16;4760185;30;20167;-81
2023/10/17 10:12:21;;;;;;;1.08;1.08;;;;;;;3.23;82.75;98048.97;4753150;30;20582;-81
2023/10/17 10:14:52;;;;;;;1.00;1.00;;;;;;;3.14;83.73;98014.78;4752192;30;20053;-81
2023/10/17 10:17:21;;;;;;;1.00;1.00;;;;;;;3.24;84.29;98015.09;4753268;30;20071;-82
2023/10/17 10:19:50;;;;;;;1.00;1.00;;;;;;;3.38;84.04;98005.13;4753819;30;20091;-83
2023/10/17 10:22:20;;;;;;;0.90;0.90;;;;;;;3.32;83.51;98014.84;4752271;30;20059;-82
2023/10/17 10:25:05;;;;;;;1.00;1.00;;;;;;;3.31;83.41;97993.72;4765751;30;20083;-81
2023/10/17 10:27:34;;;;;;;1.00;1.00;;;;;;;3.34;83.96;98020.75;4753411;30;20056;-83
2023/10/17 10:30:31;;;;;;;0.90;0.90;;;;;;;3.26;83.29;98003.19;4754088;30;20064;-81
2023/10/17 10:33:00;;;;;;;0.90;0.90;;;;;;;3.21;83.05;97988.88;4753437;30;20052;-82
2023/10/17 10:35:30;;;;;;;1.00;1.00;;;;;;;3.38;83.22;98008.59;4753154;30;20068;-82
2023/10/17 10:37:59;;;;;;;1.00;1.00;;;;;;;3.58;82.02;98005.69;4753024;30;20155;-83
2023/10/17 10:40:32;;;;;;;1.00;1.00;;;;;;;3.54;80.57;98006.38;4753164;30;20058;-82
2023/10/17 10:43:04;;;;;;;1.00;1.00;;;;;;;3.45;80.71;98025.34;4752048;30;20048;-81
2023/10/17 10:45:42;;;;;;;1.00;1.00;;;;;;;3.25;81.10;98001.56;4751654;30;20165;-81
2023/10/17 10:48:21;;;;;;;1.00;1.00;;;;;;;3.24;81.84;98013.28;4752838;30;20056;-80
2023/10/17 10:50:55;;;;;;;0.90;0.90;;;;;;;3.25;82.44;98012.22;4751457;30;20068;-82
2023/10/17 10:53:32;;;;;;;1.00;1.00;;;;;;;3.22;83.24;98011.88;4745569;30;20213;-82
2023/10/17 10:56:08;;;;;;;1.10;1.10;;;;;;;3.27;83.53;98012.00;4757462;30;20147;-82
2023/10/17 10:58:47;;;;;;;0.93;0.93;;;;;;;3.46;83.35;98010.97;4747094;30;20431;-82
2023/10/17 11:01:15;;;;;;;1.00;1.00;;;;;;;3.57;82.51;98000.56;4751308;30;20056;-82
2023/10/17 11:03:46;;;;;;;0.88;0.88;;;;;;;3.56;81.64;97996.28;4750909;30;20516;-81
2023/10/17 11:06:24;;;;;;;0.90;0.90;;;;;;;3.44;81.76;97993.53;4751199;30;20059;-81
2023/10/17 11:08:54;;;;;;;0.90;0.90;;;;;;;3.42;82.41;98004.47;4765905;30;20295;-82
2023/10/17 11:11:23;;;;;;;0.90;0.90;;;;;;;3.42;82.16;98000.97;4752288;30;20063;-83
2023/10/17 11:13:54;;;;;;;0.90;0.90;;;;;;;3.51;81.60;98006.81;4767170;30;20066;-80
2023/10/17 11:16:27;;;;;;;1.00;1.00;;;;;;;3.54;81.52;98009.84;4767592;30;20475;-82
2023/10/17 11:18:59;;;;;;;0.90;0.90;;;;;;;3.39;81.60;98006.75;4767824;30;20074;-81
2023/10/17 11:21:28;;;;;;;0.90;0.90;;;;;;;3.26;82.04;98011.19;4752787;30;20051;-82
2023/10/17 11:24:04;;;;;;;0.93;0.93;;;;;;;3.28;82.45;98010.16;4768358;30;20058;-81
2023/10/17 11:26:34;;;;;;;0.93;0.93;;;;;;;3.28;82.82;98002.16;4755583;30;20058;-81
2023/10/17 11:29:05;;;;;;;0.90;0.90;;;;;;;3.24;83.42;98009.75;4752513;30;20058;-81
2023/10/17 11:31:33;;;;;;;0.82;0.82;;;;;;;3.24;84.00;98025.78;4766899;30;20060;-81
2023/10/17 11:34:07;;;;;;;0.90;0.90;;;;;;;3.18;84.42;98045.31;4761023;30;20543;-82
2023/10/17 11:36:47;;;;;;;1.00;1.00;;;;;;;2.97;85.60;97996.72;4759532;30;20063;-81
2023/10/17 11:39:15;;;;;;;0.93;0.93;;;;;;;2.88;86.87;98016.69;4764653;30;20091;-81
2023/10/17 11:41:48;;;;;;;0.90;0.90;;;;;;;2.88;87.69;98015.88;4765773;30;20048;-82
2023/10/17 11:44:23;;;;;;;0.90;0.90;;;;;;;2.86;88.25;98018.78;4758083;30;20469;-82
2023/10/17 11:47:02;;;;;;;0.90;0.90;;;;;;;2.91;88.57;98016.28;4745180;30;20057;-82
2023/10/17 11:49:39;;;;;;;0.90;0.90;;;;;;;2.90;88.37;98013.81;4741814;30;20062;-81
2023/10/17 11:52:09;;;;;;;0.90;0.90;;;;;;;2.87;88.86;98012.41;4746696;30;20151;-82
2023/10/17 11:55:00;;;;;;;0.93;0.93;;;;;;;2.92;89.30;98012.56;4743387;30;20844;-83
2023/10/17 11:57:33;;;;;;;1.00;1.00;;;;;;;2.94;89.42;98010.50;4762643;30;20095;-80
2023/10/17 12:02:51;;;;;;;0.90;0.90;;;;;;;2.97;89.46;98022.56;4748650;30;20125;-82
2023/10/17 12:05:27;;;;;;;0.80;0.80;;;;;;;2.94;89.76;98005.16;4730870;30;20084;-84
2023/10/17 12:08:00;;;;;;;1.00;1.00;;;;;;;2.92;90.00;98004.56;4743261;30;20102;-82
2023/10/17 12:10:30;;;;;;;0.95;0.95;;;;;;;2.89;90.72;98015.66;4742599;30;20456;-81
2023/10/17 12:13:06;;;;;;;1.00;1.00;;;;;;;2.92;91.15;98007.22;4744681;30;20584;-82
2023/10/17 12:15:37;;;;;;;0.80;0.80;;;;;;;2.92;91.30;98017.09;4743472;30;20475;-82
2023/10/17 12:18:06;;;;;;;0.90;0.90;;;;;;;2.82;91.31;98014.91;4743317;30;20082;-81
2023/10/17 12:20:40;;;;;;;0.90;0.90;;;;;;;2.77;92.13;98031.53;4742012;30;20056;-82
2023/10/17 12:23:11;;;;;;;;;;;;;;;2.72;92.50;98028.72;4745915;30;20056;-82
2023/10/17 12:25:42;;;;;;;0.90;0.90;;;;;;;2.65;93.57;98019.16;4744535;30;20318;-83
2023/10/17 12:28:10;;;;;;;0.90;0.90;;;;;;;2.59;94.30;98034.97;4745233;30;20122;-83
2023/10/17 12:30:39;;;;;;;0.95;0.95;;;;;;;2.60;94.93;98020.59;4750011;30;20060;-82
2023/10/17 12:33:08;;;;;;;1.00;1.00;;;;;;;2.60;95.41;98031.25;4742816;30;20587;-82
2023/10/17 12:35:46;;;;;;;1.00;1.00;;;;;;;2.54;96.23;98021.50;4740414;30;20060;-83
2023/10/17 12:38:24;;;;;;;1.00;1.00;;;;;;;2.49;96.90;98024.00;4746610;30;20117;-80
2023/10/17 12:40:53;;;;;;;1.00;1.00;;;;;;;2.42;97.16;98012.56;4749192;30;20060;-83
2023/10/17 12:43:21;;;;;;;1.00;1.00;;;;;;;2.37;98.18;98018.53;4744286;30;20432;-81
2023/10/17 12:45:50;;;;;;;0.80;0.80;;;;;;;2.24;98.38;98031.13;4743055;30;20425;-83
2023/10/17 12:48:19;;;;;;;1.00;1.00;;;;;;;2.16;99.02;98038.34;4741694;30;20113;-82
2023/10/17 12:50:46;;;;;;;0.90;0.90;;;;;;;2.10;99.95;98031.22;4739317;30;20060;-80
2023/10/17 12:53:14;;;;;;;0.90;0.90;;;;;;;2.00;100.00;98032.69;4737334;30;20057;-81
2023/10/17 12:55:45;;;;;;;0.90;0.90;;;;;;;1.96;100.00;98040.28;4741792;30;20151;-83
2023/10/17 12:58:18;;;;;;;1.00;1.00;;;;;;;1.91;100.00;98053.41;4743487;30;20143;-83
2023/10/17 13:00:48;;;;;;;1.00;1.00;;;;;;;1.77;100.00;98041.19;4736478;30;20078;-83
2023/10/17 13:03:17;;;;;;;1.00;1.00;;;;;;;1.67;100.00;98036.31;4740402;30;20067;-84
2023/10/17 13:05:44;;;;;;;1.00;1.00;;;;;;;1.66;100.00;98034.69;4733927;30;20374;-83
2023/10/17 13:08:14;;;;;;;0.98;0.98;;;;;;;1.64;100.00;98042.06;4752317;30;20090;-82
2023/10/17 13:10:44;;;;;;;0.90;0.90;;;;;;;1.61;100.00;98032.66;4761494;30;20159;-84
2023/10/17 13:13:14;;;;;;;1.00;1.00;;;;;;;1.64;100.00;98042.88;4741684;30;20151;-84
2023/10/17 13:15:57;;;;;;;1.00;1.00;;;;;;;1.61;100.00;98032.66;4754108;30;20544;-83
2023/10/17 13:18:29;;;;;;;1.08;1.08;;;;;;;1.59;100.00;98045.34;4761649;30;20060;-82
2023/10/17 13:21:12;;;;;;;1.00;1.00;;;;;;;1.60;100.00;98040.88;4748539;30;20558;-83
2023/10/17 13:23:42;;;;;;;0.80;0.80;;;;;;;1.63;100.00;98037.78;4747800;30;20062;-84
2023/10/17 13:26:15;;;;;;;1.10;1.10;;;;;;;1.61;100.00;98045.97;4751907;30;20429;-84
2023/10/17 13:28:48;;;;;;;0.98;0.98;;;;;;;1.55;100.00;98024.72;4749526;30;20120;-84
2023/10/17 13:31:16;;;;;;;1.00;1.00;;;;;;;1.64;100.00;98040.22;4740118;30;20056;-84
2023/10/17 13:33:55;;;;;;;1.00;1.00;;;;;;;1.71;100.00;98046.34;4758265;30;20068;-82
2023/10/17 13:36:23;;;;;;;0.90;0.90;;;;;;;1.59;100.00;98024.06;4737288;30;20432;-85
2023/10/17 13:38:52;;;;;;;1.00;1.00;;;;;;;1.72;100.00;98042.66;4744706;30;20045;-84
2023/10/17 13:41:21;;;;;;;1.00;1.00;;;;;;;1.73;100.00;98048.78;4743568;30;20120;-85
2023/10/17 13:43:52;;;;;;;0.90;0.90;;;;;;;1.76;100.00;98042.22;4739984;30;20070;-84
2023/10/17 13:46:19;;;;;;;0.82;0.82;;;;;;;1.73;100.00;98046.94;4751644;30;20118;-85
2023/10/17 13:48:50;;;;;;;0.90;0.90;;;;;;;1.72;100.00;98055.97;4749698;30;20138;-84
2023/10/17 13:51:19;;;;;;;0.90;0.90;;;;;;;1.73;100.00;98051.44;4745593;30;21816;-85
2023/10/17 13:53:46;;;;;;;0.93;0.93;;;;;;;1.73;100.00;98051.44;4746945;30;20476;-84
2023/10/17 13:56:16;;;;;;;0.90;0.90;;;;;;;1.73;100.00;98049.59;4744114;30;20060;-84
2023/10/17 13:58:46;;;;;;;0.95;0.95;;;;;;;1.74;100.00;98059.19;4747593;30;20285;-84
2023/10/17 14:01:33;;;;;;;0.95;0.95;;;;;;;1.74;100.00;98059.19;4750076;30;20056;-86
2023/10/17 14:04:02;;;;;;;0.95;0.95;;;;;;;1.73;100.00;98060.25;4745647;30;20067;-86
2023/10/17 14:06:34;;;;;;;0.90;0.90;;;;;;;1.68;100.00;98057.41;4747055;30;20060;-87
2023/10/17 14:09:03;;;;;;;1.02;1.02;;;;;;;1.67;100.00;98062.91;4742423;30;20048;-86
2023/10/17 14:11:31;;;;;;;0.90;0.90;;;;;;;1.71;100.00;98064.13;4739233;30;20525;-86
2023/10/17 14:14:00;;;;;;;0.93;0.93;;;;;;;1.65;100.00;98068.47;4745973;30;20459;-85
2023/10/17 14:16:31;;;;;;;0.90;0.90;;;;;;;1.66;100.00;98072.75;4745269;30;20063;-84
2023/10/17 14:19:07;;;;;;;0.90;0.90;;;;;;;1.66;100.00;98074.59;4727062;30;20052;-85